Pelion, SC

11:44 PM EDT on July 24, 2016 (GMT -0400)
Pelion | | Change Station

Elev 455 ft 33.77 °N, 81.20 °W | Updated 8 seconds ago

Clear
Clear
79.3 °F
Feels Like 83 °F
N
0.0
Wind Variable Wind from SSW
Gusts 0.0 mph

Today
High -- | Low -- °F
--% Chance of Precip.
Yesterday
High -- | Low -- °F
Precip. -- in
Pressure 30.02 in
Visibility 10.0 miles
Clouds Clear
Heat Index 83 °F
Dew Point 75 °F
Humidity 86%
Rainfall 0.00 in
Snow Depth Not available.
6:31 AM 8:31 PM
Waning Gibbous, 70% visible
METAR KCAE 250256Z 00000KT 10SM CLR 30/24 A3004 RMK AO2 SLP166 T03000239 53020 $
Pressure 30.02 in
Visibility 10.0 miles
Clouds Clear
Heat Index 83 °F
Dew Point 75 °F
Humidity 86%
Rainfall 0.00 in
Snow Depth Not available.
6:31 AM 8:31 PM
Waning Gibbous, 70% visible
METAR KCAE 250256Z 00000KT 10SM CLR 30/24 A3004 RMK AO2 SLP166 T03000239 53020 $

10-Day Weather Forecast

Almanac

Astronomy

Jul. 24, 2016 Rise Set
Actual Time
Civil Twilight
Nautical Twilight
Astronomical Twilight
Moon
Length of Visible Light
Length of Day
Tomorrow will be .
, % of the Moon is Illuminated

Today's Extremes

State Highs State Lows

Community

WunderPhotos

Upload Photos

1,927,256 photos uploaded!

WunderBlog® & News

Nearby

Air Quality

  Air Quality AQ Index Pollutant
Not available.

Snow Depth

Station Depth Elevation

Earthquake Activity

City Distance Mag. Time & Date
Minimum magnitude displayed is 2.5.

Coastal Water Temperatures

Place Temperature

Stations

Nearby Weather Stations

Station Location Temp. Windchill Dew Point Humidity Wind Precip. Elev Updated Type
                   

Watches & Warnings

There are currently no watches in effect.